sensor_id;sensor_type;location;lat;lon;timestamp;P1;durP1;ratioP1;P2;durP2;ratioP2
62796;SDS011;48839;48.546;-4.178;2023-06-14T00:02:07;19.25;;;4.82;;
62796;SDS011;48839;48.546;-4.178;2023-06-14T00:04:34;12.73;;;4.63;;
62796;SDS011;48839;48.546;-4.178;2023-06-14T00:07:00;18.60;;;5.07;;
62796;SDS011;48839;48.546;-4.178;2023-06-14T00:09:26;22.05;;;4.40;;
62796;SDS011;48839;48.546;-4.178;2023-06-14T00:11:52;13.57;;;4.32;;
62796;SDS011;48839;48.546;-4.178;2023-06-14T00:14:18;14.60;;;4.20;;
62796;SDS011;48839;48.546;-4.178;2023-06-14T00:16:44;27.58;;;5.38;;
62796;SDS011;48839;48.546;-4.178;2023-06-14T00:19:10;24.85;;;5.70;;
62796;SDS011;48839;48.546;-4.178;2023-06-14T00:21:36;15.52;;;5.05;;
62796;SDS011;48839;48.546;-4.178;2023-06-14T00:24:03;13.13;;;4.57;;
62796;SDS011;48839;48.546;-4.178;2023-06-14T00:26:29;9.85;;;4.32;;
62796;SDS011;48839;48.546;-4.178;2023-06-14T00:28:55;12.95;;;5.10;;
62796;SDS011;48839;48.546;-4.178;2023-06-14T00:31:22;18.60;;;4.13;;
62796;SDS011;48839;48.546;-4.178;2023-06-14T00:33:48;10.13;;;4.35;;
62796;SDS011;48839;48.546;-4.178;2023-06-14T00:36:14;11.77;;;4.15;;
62796;SDS011;48839;48.546;-4.178;2023-06-14T00:38:40;12.77;;;4.18;;
62796;SDS011;48839;48.546;-4.178;2023-06-14T00:41:06;19.67;;;6.05;;
62796;SDS011;48839;48.546;-4.178;2023-06-14T00:43:32;24.95;;;4.15;;
62796;SDS011;48839;48.546;-4.178;2023-06-14T00:45:59;21.65;;;4.07;;
62796;SDS011;48839;48.546;-4.178;2023-06-14T00:48:25;17.42;;;4.75;;
62796;SDS011;48839;48.546;-4.178;2023-06-14T00:50:52;35.72;;;5.63;;
62796;SDS011;48839;48.546;-4.178;2023-06-14T00:53:18;34.60;;;5.82;;
62796;SDS011;48839;48.546;-4.178;2023-06-14T00:55:45;22.80;;;4.90;;
62796;SDS011;48839;48.546;-4.178;2023-06-14T00:58:11;23.63;;;4.82;;
62796;SDS011;48839;48.546;-4.178;2023-06-14T01:00:37;15.65;;;5.03;;
62796;SDS011;48839;48.546;-4.178;2023-06-14T01:03:03;13.32;;;4.55;;
62796;SDS011;48839;48.546;-4.178;2023-06-14T01:05:30;20.67;;;4.90;;
62796;SDS011;48839;48.546;-4.178;2023-06-14T01:12:58;23.67;;;5.88;;
62796;SDS011;48839;48.546;-4.178;2023-06-14T01:15:29;14.57;;;4.63;;
62796;SDS011;48839;48.546;-4.178;2023-06-14T01:17:56;22.52;;;5.53;;
62796;SDS011;48839;48.546;-4.178;2023-06-14T01:20:28;11.68;;;5.35;;
62796;SDS011;48839;48.546;-4.178;2023-06-14T01:22:54;14.13;;;5.07;;
62796;SDS011;48839;48.546;-4.178;2023-06-14T01:25:21;36.38;;;5.82;;
62796;SDS011;48839;48.546;-4.178;2023-06-14T01:27:55;20.25;;;6.18;;
62796;SDS011;48839;48.546;-4.178;2023-06-14T01:30:23;17.52;;;5.53;;
62796;SDS011;48839;48.546;-4.178;2023-06-14T01:32:50;12.85;;;5.18;;
62796;SDS011;48839;48.546;-4.178;2023-06-14T01:35:16;13.23;;;5.03;;
62796;SDS011;48839;48.546;-4.178;2023-06-14T01:37:42;10.70;;;4.57;;
62796;SDS011;48839;48.546;-4.178;2023-06-14T01:40:09;16.00;;;5.15;;
62796;SDS011;48839;48.546;-4.178;2023-06-14T01:42:36;13.75;;;4.57;;
62796;SDS011;48839;48.546;-4.178;2023-06-14T01:45:06;19.13;;;5.07;;
62796;SDS011;48839;48.546;-4.178;2023-06-14T01:47:33;8.60;;;4.47;;
62796;SDS011;48839;48.546;-4.178;2023-06-14T01:50:01;12.05;;;5.20;;
62796;SDS011;48839;48.546;-4.178;2023-06-14T01:52:27;11.95;;;5.15;;
62796;SDS011;48839;48.546;-4.178;2023-06-14T01:54:53;14.18;;;5.15;;
62796;SDS011;48839;48.546;-4.178;2023-06-14T01:57:19;15.20;;;4.93;;
62796;SDS011;48839;48.546;-4.178;2023-06-14T01:59:46;12.65;;;5.35;;
62796;SDS011;48839;48.546;-4.178;2023-06-14T02:02:13;10.75;;;4.53;;
62796;SDS011;48839;48.546;-4.178;2023-06-14T02:04:40;14.77;;;4.97;;
62796;SDS011;48839;48.546;-4.178;2023-06-14T02:07:06;22.73;;;5.70;;
62796;SDS011;48839;48.546;-4.178;2023-06-14T02:09:32;16.13;;;4.28;;
62796;SDS011;48839;48.546;-4.178;2023-06-14T02:11:59;18.40;;;4.78;;
62796;SDS011;48839;48.546;-4.178;2023-06-14T02:14:25;14.48;;;4.82;;
62796;SDS011;48839;48.546;-4.178;2023-06-14T02:16:51;14.23;;;4.82;;
62796;SDS011;48839;48.546;-4.178;2023-06-14T02:19:18;19.70;;;4.47;;
62796;SDS011;48839;48.546;-4.178;2023-06-14T02:21:44;13.23;;;4.88;;
62796;SDS011;48839;48.546;-4.178;2023-06-14T02:24:10;16.85;;;5.43;;
62796;SDS011;48839;48.546;-4.178;2023-06-14T02:26:36;13.32;;;5.55;;
62796;SDS011;48839;48.546;-4.178;2023-06-14T02:29:03;15.32;;;4.88;;
62796;SDS011;48839;48.546;-4.178;2023-06-14T02:31:30;24.95;;;5.93;;
62796;SDS011;48839;48.546;-4.178;2023-06-14T02:33:56;23.27;;;5.50;;
62796;SDS011;48839;48.546;-4.178;2023-06-14T02:36:22;11.60;;;4.68;;
62796;SDS011;48839;48.546;-4.178;2023-06-14T02:38:49;12.98;;;5.55;;
62796;SDS011;48839;48.546;-4.178;2023-06-14T02:41:15;18.73;;;6.70;;
62796;SDS011;48839;48.546;-4.178;2023-06-14T02:43:42;26.45;;;4.68;;
62796;SDS011;48839;48.546;-4.178;2023-06-14T02:46:09;21.77;;;4.68;;
62796;SDS011;48839;48.546;-4.178;2023-06-14T02:48:35;11.48;;;5.22;;
62796;SDS011;48839;48.546;-4.178;2023-06-14T02:51:01;19.48;;;4.50;;
62796;SDS011;48839;48.546;-4.178;2023-06-14T02:53:27;14.68;;;5.35;;
62796;SDS011;48839;48.546;-4.178;2023-06-14T02:55:53;24.67;;;4.80;;
62796;SDS011;48839;48.546;-4.178;2023-06-14T02:58:20;13.23;;;4.88;;
62796;SDS011;48839;48.546;-4.178;2023-06-14T03:00:46;11.98;;;4.60;;
62796;SDS011;48839;48.546;-4.178;2023-06-14T03:03:12;9.98;;;4.72;;
62796;SDS011;48839;48.546;-4.178;2023-06-14T03:05:43;11.07;;;4.53;;
62796;SDS011;48839;48.546;-4.178;2023-06-14T03:08:14;16.77;;;4.95;;
62796;SDS011;48839;48.546;-4.178;2023-06-14T03:10:50;14.77;;;5.30;;
62796;SDS011;48839;48.546;-4.178;2023-06-14T03:13:17;15.73;;;5.28;;
62796;SDS011;48839;48.546;-4.178;2023-06-14T03:15:45;12.23;;;4.72;;
62796;SDS011;48839;48.546;-4.178;2023-06-14T03:18:12;11.32;;;6.15;;
62796;SDS011;48839;48.546;-4.178;2023-06-14T03:20:40;14.05;;;5.53;;
62796;SDS011;48839;48.546;-4.178;2023-06-14T03:23:06;13.00;;;5.28;;
62796;SDS011;48839;48.546;-4.178;2023-06-14T03:25:32;17.08;;;5.63;;
62796;SDS011;48839;48.546;-4.178;2023-06-14T03:28:00;11.65;;;4.72;;
62796;SDS011;48839;48.546;-4.178;2023-06-14T03:30:26;14.25;;;5.43;;
62796;SDS011;48839;48.546;-4.178;2023-06-14T03:32:52;20.50;;;7.07;;
62796;SDS011;48839;48.546;-4.178;2023-06-14T03:35:20;24.55;;;8.52;;
62796;SDS011;48839;48.546;-4.178;2023-06-14T03:37:46;24.35;;;9.68;;
62796;SDS011;48839;48.546;-4.178;2023-06-14T03:40:13;33.75;;;10.15;;
62796;SDS011;48839;48.546;-4.178;2023-06-14T03:42:39;37.78;;;12.18;;
62796;SDS011;48839;48.546;-4.178;2023-06-14T03:45:05;32.75;;;11.65;;
62796;SDS011;48839;48.546;-4.178;2023-06-14T03:47:32;30.58;;;11.55;;
62796;SDS011;48839;48.546;-4.178;2023-06-14T03:49:58;32.47;;;11.45;;
62796;SDS011;48839;48.546;-4.178;2023-06-14T03:52:25;37.72;;;11.35;;
62796;SDS011;48839;48.546;-4.178;2023-06-14T03:54:51;37.47;;;12.63;;
62796;SDS011;48839;48.546;-4.178;2023-06-14T03:57:17;30.02;;;12.32;;
62796;SDS011;48839;48.546;-4.178;2023-06-14T03:59:43;38.33;;;12.38;;
62796;SDS011;48839;48.546;-4.178;2023-06-14T04:02:09;23.25;;;10.45;;
62796;SDS011;48839;48.546;-4.178;2023-06-14T04:04:36;35.05;;;12.88;;
62796;SDS011;48839;48.546;-4.178;2023-06-14T04:07:03;34.88;;;12.38;;
62796;SDS011;48839;48.546;-4.178;2023-06-14T04:09:29;31.73;;;13.27;;
62796;SDS011;48839;48.546;-4.178;2023-06-14T04:11:55;29.65;;;12.35;;
62796;SDS011;48839;48.546;-4.178;2023-06-14T04:14:21;23.63;;;10.80;;
62796;SDS011;48839;48.546;-4.178;2023-06-14T04:16:48;27.13;;;11.65;;
62796;SDS011;48839;48.546;-4.178;2023-06-14T04:19:14;26.98;;;11.55;;
62796;SDS011;48839;48.546;-4.178;2023-06-14T04:21:41;28.48;;;11.60;;
62796;SDS011;48839;48.546;-4.178;2023-06-14T04:24:07;19.40;;;9.85;;
62796;SDS011;48839;48.546;-4.178;2023-06-14T04:26:41;23.90;;;11.15;;
62796;SDS011;48839;48.546;-4.178;2023-06-14T04:29:09;21.60;;;10.25;;
62796;SDS011;48839;48.546;-4.178;2023-06-14T04:31:39;20.02;;;9.77;;
62796;SDS011;48839;48.546;-4.178;2023-06-14T04:34:05;18.98;;;9.30;;
62796;SDS011;48839;48.546;-4.178;2023-06-14T04:36:35;25.75;;;11.75;;
62796;SDS011;48839;48.546;-4.178;2023-06-14T04:39:06;34.20;;;13.45;;
62796;SDS011;48839;48.546;-4.178;2023-06-14T04:41:32;38.90;;;13.50;;
62796;SDS011;48839;48.546;-4.178;2023-06-14T04:44:00;53.53;;;18.73;;
62796;SDS011;48839;48.546;-4.178;2023-06-14T04:46:27;52.50;;;20.52;;
62796;SDS011;48839;48.546;-4.178;2023-06-14T04:48:54;54.28;;;22.42;;
62796;SDS011;48839;48.546;-4.178;2023-06-14T04:51:20;48.30;;;19.17;;
62796;SDS011;48839;48.546;-4.178;2023-06-14T04:53:51;51.17;;;17.63;;
62796;SDS011;48839;48.546;-4.178;2023-06-14T04:56:17;45.60;;;18.15;;
62796;SDS011;48839;48.546;-4.178;2023-06-14T04:58:43;36.95;;;16.38;;
62796;SDS011;48839;48.546;-4.178;2023-06-14T05:01:11;38.08;;;16.20;;
62796;SDS011;48839;48.546;-4.178;2023-06-14T05:03:37;37.22;;;15.65;;
62796;SDS011;48839;48.546;-4.178;2023-06-14T05:06:03;37.30;;;16.10;;
62796;SDS011;48839;48.546;-4.178;2023-06-14T05:08:29;39.45;;;16.00;;
62796;SDS011;48839;48.546;-4.178;2023-06-14T05:10:55;36.95;;;14.70;;
62796;SDS011;48839;48.546;-4.178;2023-06-14T05:13:21;29.80;;;13.20;;
62796;SDS011;48839;48.546;-4.178;2023-06-14T05:15:48;24.60;;;11.65;;
62796;SDS011;48839;48.546;-4.178;2023-06-14T05:18:14;25.00;;;12.07;;
62796;SDS011;48839;48.546;-4.178;2023-06-14T05:20:40;22.50;;;11.48;;
62796;SDS011;48839;48.546;-4.178;2023-06-14T05:23:07;20.77;;;11.55;;
62796;SDS011;48839;48.546;-4.178;2023-06-14T05:25:33;17.85;;;10.45;;
62796;SDS011;48839;48.546;-4.178;2023-06-14T05:27:59;18.27;;;10.02;;
62796;SDS011;48839;48.546;-4.178;2023-06-14T05:30:25;19.58;;;10.23;;
62796;SDS011;48839;48.546;-4.178;2023-06-14T05:32:51;20.95;;;10.88;;
62796;SDS011;48839;48.546;-4.178;2023-06-14T05:35:18;19.00;;;9.32;;
62796;SDS011;48839;48.546;-4.178;2023-06-14T05:37:44;18.55;;;9.75;;
62796;SDS011;48839;48.546;-4.178;2023-06-14T05:40:10;16.88;;;8.60;;
62796;SDS011;48839;48.546;-4.178;2023-06-14T05:42:36;14.05;;;8.70;;
62796;SDS011;48839;48.546;-4.178;2023-06-14T05:45:02;16.20;;;8.60;;
62796;SDS011;48839;48.546;-4.178;2023-06-14T05:47:28;14.45;;;7.93;;
62796;SDS011;48839;48.546;-4.178;2023-06-14T05:49:54;16.92;;;8.93;;
62796;SDS011;48839;48.546;-4.178;2023-06-14T05:52:20;13.23;;;7.88;;
62796;SDS011;48839;48.546;-4.178;2023-06-14T05:54:46;14.93;;;7.85;;
62796;SDS011;48839;48.546;-4.178;2023-06-14T05:57:12;14.52;;;8.52;;
62796;SDS011;48839;48.546;-4.178;2023-06-14T05:59:38;15.70;;;8.68;;
62796;SDS011;48839;48.546;-4.178;2023-06-14T06:02:05;13.10;;;8.02;;
62796;SDS011;48839;48.546;-4.178;2023-06-14T06:04:31;14.32;;;8.52;;
62796;SDS011;48839;48.546;-4.178;2023-06-14T06:06:57;12.23;;;7.45;;
62796;SDS011;48839;48.546;-4.178;2023-06-14T06:09:23;14.15;;;7.57;;
62796;SDS011;48839;48.546;-4.178;2023-06-14T06:11:49;12.88;;;7.20;;
62796;SDS011;48839;48.546;-4.178;2023-06-14T06:14:15;12.30;;;7.03;;
62796;SDS011;48839;48.546;-4.178;2023-06-14T06:16:41;12.40;;;6.97;;
62796;SDS011;48839;48.546;-4.178;2023-06-14T06:19:07;11.60;;;6.97;;
62796;SDS011;48839;48.546;-4.178;2023-06-14T06:21:33;10.63;;;6.43;;
62796;SDS011;48839;48.546;-4.178;2023-06-14T06:23:59;13.07;;;6.47;;
62796;SDS011;48839;48.546;-4.178;2023-06-14T06:26:28;8.90;;;5.82;;
62796;SDS011;48839;48.546;-4.178;2023-06-14T06:28:54;11.85;;;6.55;;
62796;SDS011;48839;48.546;-4.178;2023-06-14T06:31:22;10.07;;;6.25;;
62796;SDS011;48839;48.546;-4.178;2023-06-14T06:33:48;9.32;;;5.53;;
62796;SDS011;48839;48.546;-4.178;2023-06-14T06:36:14;8.52;;;5.65;;
62796;SDS011;48839;48.546;-4.178;2023-06-14T06:38:40;10.18;;;6.28;;
62796;SDS011;48839;48.546;-4.178;2023-06-14T06:41:06;9.02;;;5.78;;
62796;SDS011;48839;48.546;-4.178;2023-06-14T06:43:32;9.27;;;6.20;;
62796;SDS011;48839;48.546;-4.178;2023-06-14T06:45:58;10.20;;;5.97;;
62796;SDS011;48839;48.546;-4.178;2023-06-14T06:48:24;8.95;;;5.57;;
62796;SDS011;48839;48.546;-4.178;2023-06-14T06:50:50;8.75;;;5.65;;
62796;SDS011;48839;48.546;-4.178;2023-06-14T06:53:17;8.70;;;5.47;;
62796;SDS011;48839;48.546;-4.178;2023-06-14T06:55:43;8.68;;;5.40;;
62796;SDS011;48839;48.546;-4.178;2023-06-14T06:58:09;9.85;;;5.65;;
62796;SDS011;48839;48.546;-4.178;2023-06-14T07:00:35;5.95;;;4.93;;
62796;SDS011;48839;48.546;-4.178;2023-06-14T07:03:01;7.20;;;5.50;;
62796;SDS011;48839;48.546;-4.178;2023-06-14T07:05:29;9.95;;;5.72;;
62796;SDS011;48839;48.546;-4.178;2023-06-14T07:07:55;6.28;;;5.20;;
62796;SDS011;48839;48.546;-4.178;2023-06-14T07:10:21;9.13;;;6.00;;
62796;SDS011;48839;48.546;-4.178;2023-06-14T07:12:47;11.07;;;6.07;;
62796;SDS011;48839;48.546;-4.178;2023-06-14T07:15:13;6.03;;;5.03;;
62796;SDS011;48839;48.546;-4.178;2023-06-14T07:17:39;8.98;;;5.82;;
62796;SDS011;48839;48.546;-4.178;2023-06-14T07:20:06;7.47;;;5.28;;
62796;SDS011;48839;48.546;-4.178;2023-06-14T07:22:42;8.35;;;5.63;;
62796;SDS011;48839;48.546;-4.178;2023-06-14T07:25:11;8.60;;;5.32;;
62796;SDS011;48839;48.546;-4.178;2023-06-14T07:27:41;9.13;;;6.68;;
62796;SDS011;48839;48.546;-4.178;2023-06-14T07:30:08;8.98;;;6.40;;
62796;SDS011;48839;48.546;-4.178;2023-06-14T07:32:34;9.88;;;6.40;;
62796;SDS011;48839;48.546;-4.178;2023-06-14T07:35:00;8.35;;;5.43;;
62796;SDS011;48839;48.546;-4.178;2023-06-14T07:37:26;6.78;;;5.18;;
62796;SDS011;48839;48.546;-4.178;2023-06-14T07:39:52;9.68;;;5.82;;
62796;SDS011;48839;48.546;-4.178;2023-06-14T07:42:18;8.70;;;6.10;;
62796;SDS011;48839;48.546;-4.178;2023-06-14T07:44:44;10.40;;;5.90;;
62796;SDS011;48839;48.546;-4.178;2023-06-14T07:47:10;10.00;;;5.68;;
62796;SDS011;48839;48.546;-4.178;2023-06-14T07:49:36;8.55;;;5.57;;
62796;SDS011;48839;48.546;-4.178;2023-06-14T07:52:02;9.05;;;6.20;;
62796;SDS011;48839;48.546;-4.178;2023-06-14T07:54:30;9.18;;;6.53;;
62796;SDS011;48839;48.546;-4.178;2023-06-14T07:56:57;10.35;;;6.15;;
62796;SDS011;48839;48.546;-4.178;2023-06-14T07:59:25;9.82;;;6.60;;
62796;SDS011;48839;48.546;-4.178;2023-06-14T08:01:51;8.75;;;5.97;;
62796;SDS011;48839;48.546;-4.178;2023-06-14T08:04:17;7.82;;;5.68;;
62796;SDS011;48839;48.546;-4.178;2023-06-14T08:06:43;7.57;;;5.40;;
62796;SDS011;48839;48.546;-4.178;2023-06-14T08:09:10;9.73;;;5.88;;
62796;SDS011;48839;48.546;-4.178;2023-06-14T08:11:36;8.32;;;6.07;;
62796;SDS011;48839;48.546;-4.178;2023-06-14T08:14:02;9.52;;;6.45;;
62796;SDS011;48839;48.546;-4.178;2023-06-14T08:16:28;8.52;;;6.68;;
62796;SDS011;48839;48.546;-4.178;2023-06-14T08:18:55;9.98;;;6.57;;
62796;SDS011;48839;48.546;-4.178;2023-06-14T08:21:21;10.18;;;6.95;;
62796;SDS011;48839;48.546;-4.178;2023-06-14T08:23:47;11.02;;;7.10;;
62796;SDS011;48839;48.546;-4.178;2023-06-14T08:26:13;9.75;;;6.30;;
62796;SDS011;48839;48.546;-4.178;2023-06-14T08:28:39;9.20;;;5.80;;
62796;SDS011;48839;48.546;-4.178;2023-06-14T08:31:05;11.43;;;6.25;;
62796;SDS011;48839;48.546;-4.178;2023-06-14T08:33:31;9.10;;;5.85;;
62796;SDS011;48839;48.546;-4.178;2023-06-14T08:36:00;10.52;;;6.45;;
62796;SDS011;48839;48.546;-4.178;2023-06-14T08:38:26;9.43;;;6.55;;
62796;SDS011;48839;48.546;-4.178;2023-06-14T08:40:52;8.13;;;6.07;;
62796;SDS011;48839;48.546;-4.178;2023-06-14T08:43:22;7.35;;;5.50;;
62796;SDS011;48839;48.546;-4.178;2023-06-14T08:45:48;8.63;;;6.03;;
62796;SDS011;48839;48.546;-4.178;2023-06-14T08:48:17;8.27;;;5.80;;
62796;SDS011;48839;48.546;-4.178;2023-06-14T08:50:45;8.88;;;6.00;;
62796;SDS011;48839;48.546;-4.178;2023-06-14T08:53:13;10.77;;;7.60;;
62796;SDS011;48839;48.546;-4.178;2023-06-14T08:55:41;9.15;;;7.63;;
62796;SDS011;48839;48.546;-4.178;2023-06-14T08:58:08;13.07;;;9.20;;
62796;SDS011;48839;48.546;-4.178;2023-06-14T09:00:34;11.55;;;6.78;;
62796;SDS011;48839;48.546;-4.178;2023-06-14T09:03:02;9.73;;;6.72;;
62796;SDS011;48839;48.546;-4.178;2023-06-14T09:05:28;8.60;;;6.15;;
62796;SDS011;48839;48.546;-4.178;2023-06-14T09:07:55;7.80;;;5.78;;
62796;SDS011;48839;48.546;-4.178;2023-06-14T09:10:25;6.93;;;5.25;;
62796;SDS011;48839;48.546;-4.178;2023-06-14T09:12:53;7.72;;;5.88;;
62796;SDS011;48839;48.546;-4.178;2023-06-14T09:15:21;7.65;;;5.82;;
62796;SDS011;48839;48.546;-4.178;2023-06-14T09:17:47;8.07;;;5.40;;
62796;SDS011;48839;48.546;-4.178;2023-06-14T09:20:13;8.10;;;5.18;;
62796;SDS011;48839;48.546;-4.178;2023-06-14T09:22:43;6.80;;;5.30;;
62796;SDS011;48839;48.546;-4.178;2023-06-14T09:25:09;8.15;;;5.35;;
62796;SDS011;48839;48.546;-4.178;2023-06-14T09:27:38;8.07;;;5.70;;
62796;SDS011;48839;48.546;-4.178;2023-06-14T09:30:06;8.77;;;6.68;;
62796;SDS011;48839;48.546;-4.178;2023-06-14T09:32:37;7.63;;;5.50;;
62796;SDS011;48839;48.546;-4.178;2023-06-14T09:35:05;7.30;;;6.03;;
62796;SDS011;48839;48.546;-4.178;2023-06-14T09:37:32;11.73;;;6.70;;
62796;SDS011;48839;48.546;-4.178;2023-06-14T09:39:58;7.82;;;5.30;;
62796;SDS011;48839;48.546;-4.178;2023-06-14T09:42:25;7.15;;;5.25;;
62796;SDS011;48839;48.546;-4.178;2023-06-14T09:44:52;8.73;;;5.72;;
62796;SDS011;48839;48.546;-4.178;2023-06-14T09:47:19;9.02;;;5.50;;
62796;SDS011;48839;48.546;-4.178;2023-06-14T09:49:46;7.28;;;5.75;;
62796;SDS011;48839;48.546;-4.178;2023-06-14T09:52:15;12.23;;;6.20;;
62796;SDS011;48839;48.546;-4.178;2023-06-14T09:54:43;7.22;;;5.55;;
62796;SDS011;48839;48.546;-4.178;2023-06-14T09:57:11;9.43;;;6.03;;
62796;SDS011;48839;48.546;-4.178;2023-06-14T09:59:42;8.65;;;5.18;;
62796;SDS011;48839;48.546;-4.178;2023-06-14T10:02:10;6.70;;;4.88;;
62796;SDS011;48839;48.546;-4.178;2023-06-14T10:04:37;8.48;;;5.43;;
62796;SDS011;48839;48.546;-4.178;2023-06-14T10:07:05;5.93;;;4.15;;
62796;SDS011;48839;48.546;-4.178;2023-06-14T10:09:31;6.93;;;5.18;;
62796;SDS011;48839;48.546;-4.178;2023-06-14T10:12:00;7.93;;;4.57;;
62796;SDS011;48839;48.546;-4.178;2023-06-14T10:14:26;6.05;;;4.35;;
62796;SDS011;48839;48.546;-4.178;2023-06-14T10:17:12;6.38;;;4.93;;
62796;SDS011;48839;48.546;-4.178;2023-06-14T10:19:50;6.95;;;4.70;;
62796;SDS011;48839;48.546;-4.178;2023-06-14T10:22:19;7.78;;;5.85;;
62796;SDS011;48839;48.546;-4.178;2023-06-14T10:24:48;7.25;;;5.53;;
62796;SDS011;48839;48.546;-4.178;2023-06-14T10:27:15;8.43;;;5.63;;
62796;SDS011;48839;48.546;-4.178;2023-06-14T10:32:27;10.27;;;5.80;;
62796;SDS011;48839;48.546;-4.178;2023-06-14T10:35:15;7.70;;;5.55;;
62796;SDS011;48839;48.546;-4.178;2023-06-14T10:37:40;8.00;;;5.90;;
62796;SDS011;48839;48.546;-4.178;2023-06-14T10:40:06;8.82;;;6.13;;
62796;SDS011;48839;48.546;-4.178;2023-06-14T10:42:33;9.10;;;6.15;;
62796;SDS011;48839;48.546;-4.178;2023-06-14T10:45:00;10.80;;;6.78;;
62796;SDS011;48839;48.546;-4.178;2023-06-14T10:47:33;11.15;;;6.85;;
62796;SDS011;48839;48.546;-4.178;2023-06-14T10:50:05;9.07;;;5.90;;
62796;SDS011;48839;48.546;-4.178;2023-06-14T10:52:37;13.20;;;8.00;;
62796;SDS011;48839;48.546;-4.178;2023-06-14T11:00:24;10.50;;;7.68;;
62796;SDS011;48839;48.546;-4.178;2023-06-14T11:05:29;10.38;;;7.63;;
62796;SDS011;48839;48.546;-4.178;2023-06-14T11:10:41;10.00;;;6.65;;
62796;SDS011;48839;48.546;-4.178;2023-06-14T11:13:10;10.65;;;6.50;;
62796;SDS011;48839;48.546;-4.178;2023-06-14T11:15:36;9.25;;;6.40;;
62796;SDS011;48839;48.546;-4.178;2023-06-14T11:18:04;9.18;;;6.68;;
62796;SDS011;48839;48.546;-4.178;2023-06-14T11:20:31;10.57;;;6.80;;
62796;SDS011;48839;48.546;-4.178;2023-06-14T11:22:57;9.90;;;6.60;;
62796;SDS011;48839;48.546;-4.178;2023-06-14T11:25:24;10.65;;;7.10;;
62796;SDS011;48839;48.546;-4.178;2023-06-14T11:27:51;8.77;;;6.90;;
62796;SDS011;48839;48.546;-4.178;2023-06-14T11:30:17;9.18;;;7.03;;
62796;SDS011;48839;48.546;-4.178;2023-06-14T11:32:47;11.82;;;7.28;;
62796;SDS011;48839;48.546;-4.178;2023-06-14T11:35:13;10.73;;;6.53;;
62796;SDS011;48839;48.546;-4.178;2023-06-14T11:37:39;12.95;;;7.45;;
62796;SDS011;48839;48.546;-4.178;2023-06-14T11:40:07;13.88;;;7.95;;
62796;SDS011;48839;48.546;-4.178;2023-06-14T11:42:35;12.68;;;8.48;;
62796;SDS011;48839;48.546;-4.178;2023-06-14T11:45:01;14.57;;;8.20;;
62796;SDS011;48839;48.546;-4.178;2023-06-14T11:47:34;15.27;;;8.65;;
62796;SDS011;48839;48.546;-4.178;2023-06-14T11:50:04;13.13;;;8.45;;
62796;SDS011;48839;48.546;-4.178;2023-06-14T11:52:31;16.27;;;9.27;;
62796;SDS011;48839;48.546;-4.178;2023-06-14T11:54:57;12.68;;;8.10;;
62796;SDS011;48839;48.546;-4.178;2023-06-14T11:57:23;15.63;;;9.05;;
62796;SDS011;48839;48.546;-4.178;2023-06-14T11:59:50;14.35;;;9.45;;
62796;SDS011;48839;48.546;-4.178;2023-06-14T12:02:16;13.48;;;9.05;;
62796;SDS011;48839;48.546;-4.178;2023-06-14T12:04:42;15.55;;;9.77;;
62796;SDS011;48839;48.546;-4.178;2023-06-14T12:07:12;14.25;;;9.52;;
62796;SDS011;48839;48.546;-4.178;2023-06-14T12:10:25;13.90;;;9.18;;
62796;SDS011;48839;48.546;-4.178;2023-06-14T12:12:26;15.73;;;10.25;;
62796;SDS011;48839;48.546;-4.178;2023-06-14T12:14:53;15.13;;;9.40;;
62796;SDS011;48839;48.546;-4.178;2023-06-14T12:17:19;14.90;;;9.63;;
62796;SDS011;48839;48.546;-4.178;2023-06-14T12:19:45;14.68;;;9.75;;
62796;SDS011;48839;48.546;-4.178;2023-06-14T12:22:12;15.27;;;9.25;;
62796;SDS011;48839;48.546;-4.178;2023-06-14T12:24:39;14.68;;;9.70;;
62796;SDS011;48839;48.546;-4.178;2023-06-14T12:27:05;12.82;;;8.70;;
62796;SDS011;48839;48.546;-4.178;2023-06-14T12:29:31;12.45;;;8.50;;
62796;SDS011;48839;48.546;-4.178;2023-06-14T12:31:57;14.52;;;8.85;;
62796;SDS011;48839;48.546;-4.178;2023-06-14T12:34:24;12.10;;;8.73;;
62796;SDS011;48839;48.546;-4.178;2023-06-14T12:36:50;14.38;;;8.60;;
62796;SDS011;48839;48.546;-4.178;2023-06-14T12:39:16;12.77;;;8.60;;
62796;SDS011;48839;48.546;-4.178;2023-06-14T12:41:43;11.23;;;8.35;;
62796;SDS011;48839;48.546;-4.178;2023-06-14T12:44:09;15.10;;;8.85;;
62796;SDS011;48839;48.546;-4.178;2023-06-14T12:46:36;16.83;;;9.32;;
62796;SDS011;48839;48.546;-4.178;2023-06-14T12:49:02;14.23;;;9.75;;
62796;SDS011;48839;48.546;-4.178;2023-06-14T12:51:28;16.30;;;10.20;;
62796;SDS011;48839;48.546;-4.178;2023-06-14T12:53:54;16.27;;;10.27;;
62796;SDS011;48839;48.546;-4.178;2023-06-14T12:56:20;15.15;;;9.88;;
62796;SDS011;48839;48.546;-4.178;2023-06-14T12:58:46;16.00;;;10.15;;
62796;SDS011;48839;48.546;-4.178;2023-06-14T13:01:12;18.23;;;11.57;;
62796;SDS011;48839;48.546;-4.178;2023-06-14T13:03:38;17.80;;;11.75;;
62796;SDS011;48839;48.546;-4.178;2023-06-14T13:06:04;18.98;;;11.80;;
62796;SDS011;48839;48.546;-4.178;2023-06-14T13:08:30;15.48;;;11.02;;
62796;SDS011;48839;48.546;-4.178;2023-06-14T13:10:57;18.00;;;11.30;;
62796;SDS011;48839;48.546;-4.178;2023-06-14T13:13:23;15.88;;;11.15;;
62796;SDS011;48839;48.546;-4.178;2023-06-14T13:15:49;15.75;;;10.65;;
62796;SDS011;48839;48.546;-4.178;2023-06-14T13:18:15;15.93;;;9.98;;
62796;SDS011;48839;48.546;-4.178;2023-06-14T13:20:41;18.15;;;10.65;;
62796;SDS011;48839;48.546;-4.178;2023-06-14T13:23:08;14.63;;;10.20;;
62796;SDS011;48839;48.546;-4.178;2023-06-14T13:25:36;14.57;;;10.15;;
62796;SDS011;48839;48.546;-4.178;2023-06-14T13:28:03;15.25;;;10.10;;
62796;SDS011;48839;48.546;-4.178;2023-06-14T13:30:30;12.90;;;9.98;;
62796;SDS011;48839;48.546;-4.178;2023-06-14T13:32:56;16.05;;;9.18;;
62796;SDS011;48839;48.546;-4.178;2023-06-14T13:35:23;12.00;;;8.70;;
62796;SDS011;48839;48.546;-4.178;2023-06-14T13:37:49;14.93;;;10.23;;
62796;SDS011;48839;48.546;-4.178;2023-06-14T13:40:15;14.38;;;9.73;;
62796;SDS011;48839;48.546;-4.178;2023-06-14T13:42:41;15.48;;;11.05;;
62796;SDS011;48839;48.546;-4.178;2023-06-14T13:45:08;14.52;;;9.10;;
62796;SDS011;48839;48.546;-4.178;2023-06-14T13:47:34;15.65;;;10.18;;
62796;SDS011;48839;48.546;-4.178;2023-06-14T13:50:01;14.73;;;10.60;;
62796;SDS011;48839;48.546;-4.178;2023-06-14T13:52:28;14.52;;;9.82;;
62796;SDS011;48839;48.546;-4.178;2023-06-14T13:54:54;16.40;;;10.07;;
62796;SDS011;48839;48.546;-4.178;2023-06-14T13:57:20;13.90;;;10.50;;
62796;SDS011;48839;48.546;-4.178;2023-06-14T13:59:46;15.85;;;10.32;;
62796;SDS011;48839;48.546;-4.178;2023-06-14T14:02:12;14.82;;;9.48;;
62796;SDS011;48839;48.546;-4.178;2023-06-14T14:04:38;17.23;;;10.75;;
62796;SDS011;48839;48.546;-4.178;2023-06-14T14:07:05;15.55;;;10.77;;
62796;SDS011;48839;48.546;-4.178;2023-06-14T14:09:34;15.75;;;10.60;;
62796;SDS011;48839;48.546;-4.178;2023-06-14T14:12:00;16.83;;;10.63;;
62796;SDS011;48839;48.546;-4.178;2023-06-14T14:14:30;16.92;;;10.57;;
62796;SDS011;48839;48.546;-4.178;2023-06-14T14:16:57;14.88;;;9.95;;
62796;SDS011;48839;48.546;-4.178;2023-06-14T14:19:23;14.82;;;10.45;;
62796;SDS011;48839;48.546;-4.178;2023-06-14T14:21:50;14.82;;;10.13;;
62796;SDS011;48839;48.546;-4.178;2023-06-14T14:24:16;20.63;;;12.07;;
62796;SDS011;48839;48.546;-4.178;2023-06-14T14:26:42;14.57;;;10.05;;
62796;SDS011;48839;48.546;-4.178;2023-06-14T14:29:08;15.70;;;10.60;;
62796;SDS011;48839;48.546;-4.178;2023-06-14T14:31:36;13.68;;;9.82;;
62796;SDS011;48839;48.546;-4.178;2023-06-14T14:34:02;17.23;;;9.65;;
62796;SDS011;48839;48.546;-4.178;2023-06-14T14:36:28;13.52;;;9.65;;
62796;SDS011;48839;48.546;-4.178;2023-06-14T14:38:54;16.63;;;10.43;;